GIA55 WIII-WAMM
Flight info
| Callsign | GIA55 |
|---|---|
| Flight time | 3h 10m |
| Altitude | 37000 |
| Route | EGUKO2B EGUKO T9 ARITO ARITO1D |
| Aircraft | B738/M-V/N |
Departure
| Time | 2026-04-24 08:48 |
|---|---|
| Airport | Soekarno-Hatta International Airport (WIII) |
Arrival
| Time | 2026-04-24 11:58 |
|---|---|
| Airport | Sam Ratulangi International Airport (WAMM) |
| Time | Latitude | Longitude | Altitude | Speed | Heading |
|---|---|---|---|---|---|
| 2026-04-24 08:36 | -6.13293 | 106.65742 | 47 ft | 0 kts | 309° |
| 2026-04-24 08:40 | -6.13294 | 106.65743 | 47 ft | 1 kts | 309° |
| 2026-04-24 08:40 | -6.13302 | 106.65752 | 47 ft | 0 kts | 308° |
| 2026-04-24 08:40 | -6.13309 | 106.65762 | 47 ft | 2 kts | 291° |
| 2026-04-24 08:41 | -6.13312 | 106.65777 | 47 ft | 2 kts | 270° |
| 2026-04-24 08:41 | -6.13310 | 106.65791 | 47 ft | 2 kts | 249° |
| 2026-04-24 08:41 | -6.13302 | 106.65804 | 47 ft | 2 kts | 227° |
| 2026-04-24 08:41 | -6.13295 | 106.65811 | 47 ft | 2 kts | 213° |
| 2026-04-24 08:42 | -6.13280 | 106.65818 | 47 ft | 0 kts | 190° |
| 2026-04-24 08:42 | -6.13273 | 106.65819 | 47 ft | 0 kts | 187° |
| 2026-04-24 08:43 | -6.13306 | 106.65815 | 47 ft | 7 kts | 181° |
| 2026-04-24 08:44 | -6.13377 | 106.65810 | 47 ft | 12 kts | 204° |
| 2026-04-24 08:44 | -6.13422 | 106.65723 | 47 ft | 16 kts | 251° |
| 2026-04-24 08:44 | -6.13464 | 106.65607 | 47 ft | 19 kts | 249° |
| 2026-04-24 08:44 | -6.13516 | 106.65482 | 47 ft | 18 kts | 247° |
| 2026-04-24 08:45 | -6.13568 | 106.65357 | 47 ft | 22 kts | 248° |
| 2026-04-24 08:45 | -6.13633 | 106.65186 | 47 ft | 29 kts | 247° |
| 2026-04-24 08:45 | -6.13721 | 106.64973 | 47 ft | 36 kts | 248° |
| 2026-04-24 08:45 | -6.13813 | 106.64741 | 47 ft | 35 kts | 248° |
| 2026-04-24 08:46 | -6.13899 | 106.64526 | 47 ft | 31 kts | 249° |
| 2026-04-24 08:46 | -6.13996 | 106.64441 | 47 ft | 17 kts | 153° |
| 2026-04-24 08:46 | -6.14106 | 106.64490 | 47 ft | 16 kts | 155° |
| 2026-04-24 08:46 | -6.14167 | 106.64532 | 47 ft | 15 kts | 117° |
| 2026-04-24 08:47 | -6.14133 | 106.64669 | 47 ft | 20 kts | 67° |
| 2026-04-24 08:47 | -6.13989 | 106.65031 | 47 ft | 91 kts | 68° |
| 2026-04-24 08:47 | -6.13670 | 106.65831 | 47 ft | 152 kts | 68° |
| 2026-04-24 08:47 | -6.13260 | 106.66898 | 453 ft | 169 kts | 67° |
| 2026-04-24 08:48 | -6.12829 | 106.67989 | 1144 ft | 174 kts | 67° |
| 2026-04-24 08:48 | -6.12517 | 106.68774 | 1456 ft | 187 kts | 67° |
| 2026-04-24 08:48 | -6.11836 | 106.70531 | 1880 ft | 227 kts | 69° |
| 2026-04-24 08:48 | -6.11447 | 106.71563 | 2116 ft | 247 kts | 69° |
| 2026-04-24 08:49 | -6.10560 | 106.73900 | 2784 ft | 275 kts | 69° |
| 2026-04-24 08:49 | -6.10180 | 106.75072 | 3544 ft | 272 kts | 75° |
| 2026-04-24 08:49 | -6.10093 | 106.77593 | 4873 ft | 272 kts | 94° |
| 2026-04-24 08:49 | -6.10256 | 106.79475 | 5914 ft | 271 kts | 92° |
| 2026-04-24 08:50 | -6.10318 | 106.80728 | 6540 ft | 273 kts | 91° |
| 2026-04-24 08:50 | -6.10336 | 106.83288 | 6983 ft | 278 kts | 88° |
| 2026-04-24 08:50 | -6.10292 | 106.85228 | 7007 ft | 277 kts | 87° |
| 2026-04-24 08:50 | -6.10254 | 106.86525 | 7012 ft | 276 kts | 87° |
| 2026-04-24 08:51 | -6.10179 | 106.89116 | 6809 ft | 276 kts | 87° |
| 2026-04-24 08:51 | -6.10127 | 106.91023 | 6801 ft | 273 kts | 87° |
| 2026-04-24 08:51 | -6.10094 | 106.92284 | 6802 ft | 277 kts | 87° |
| 2026-04-24 08:51 | -6.10045 | 106.94225 | 6800 ft | 275 kts | 87° |
| 2026-04-24 08:52 | -6.09998 | 106.96147 | 6799 ft | 275 kts | 87° |
| 2026-04-24 08:52 | -6.09934 | 106.98702 | 6799 ft | 276 kts | 87° |
| 2026-04-24 08:52 | -6.09885 | 107.00639 | 6804 ft | 275 kts | 87° |
| 2026-04-24 08:52 | -6.09853 | 107.01904 | 6808 ft | 274 kts | 87° |
| 2026-04-24 08:53 | -6.09804 | 107.03823 | 6814 ft | 273 kts | 87° |
| 2026-04-24 08:53 | -6.09778 | 107.05741 | 6798 ft | 273 kts | 88° |
| 2026-04-24 08:53 | -6.09781 | 107.07658 | 6806 ft | 275 kts | 89° |
| 2026-04-24 08:53 | -6.09793 | 107.10223 | 6800 ft | 276 kts | 89° |
| 2026-04-24 08:54 | -6.09798 | 107.11506 | 6805 ft | 275 kts | 89° |
| 2026-04-24 08:54 | -6.09801 | 107.13412 | 6813 ft | 276 kts | 89° |
| 2026-04-24 08:54 | -6.09799 | 107.15359 | 6815 ft | 275 kts | 88° |
| 2026-04-24 08:54 | -6.09584 | 107.17247 | 6792 ft | 274 kts | 73° |
| 2026-04-24 08:55 | -6.08692 | 107.18957 | 6924 ft | 287 kts | 48° |
| 2026-04-24 08:55 | -6.07239 | 107.20274 | 8031 ft | 280 kts | 41° |
| 2026-04-24 08:55 | -6.05369 | 107.21923 | 9120 ft | 284 kts | 43° |
| 2026-04-24 08:55 | -6.04403 | 107.22815 | 9660 ft | 288 kts | 43° |
| 2026-04-24 08:56 | -6.02918 | 107.24198 | 10387 ft | 296 kts | 43° |
| 2026-04-24 08:56 | -6.01370 | 107.25637 | 10879 ft | 312 kts | 43° |
| 2026-04-24 08:56 | -5.99734 | 107.27147 | 11351 ft | 328 kts | 43° |
| 2026-04-24 08:56 | -5.98022 | 107.28722 | 11746 ft | 344 kts | 43° |
| 2026-04-24 08:57 | -5.95613 | 107.30930 | 11801 ft | 349 kts | 43° |
| 2026-04-24 08:57 | -5.94428 | 107.32014 | 11802 ft | 347 kts | 43° |
| 2026-04-24 08:57 | -5.92631 | 107.33660 | 11803 ft | 347 kts | 43° |
| 2026-04-24 08:57 | -5.90855 | 107.35288 | 11801 ft | 347 kts | 43° |
| 2026-04-24 08:58 | -5.88472 | 107.37474 | 11801 ft | 346 kts | 43° |
| 2026-04-24 08:58 | -5.86692 | 107.39107 | 11818 ft | 351 kts | 43° |
| 2026-04-24 08:58 | -5.84852 | 107.40794 | 12516 ft | 356 kts | 43° |
| 2026-04-24 08:58 | -5.83662 | 107.41885 | 13164 ft | 354 kts | 43° |
| 2026-04-24 08:59 | -5.81834 | 107.43561 | 13917 ft | 357 kts | 43° |
| 2026-04-24 08:59 | -5.79371 | 107.45818 | 14970 ft | 359 kts | 43° |
| 2026-04-24 08:59 | -5.78139 | 107.46946 | 15437 ft | 362 kts | 43° |
| 2026-04-24 08:59 | -5.75659 | 107.49219 | 16331 ft | 367 kts | 42° |
| 2026-04-24 09:00 | -5.74399 | 107.50373 | 16824 ft | 368 kts | 42° |
| 2026-04-24 09:00 | -5.72496 | 107.52116 | 17443 ft | 372 kts | 42° |
| 2026-04-24 09:00 | -5.69920 | 107.54474 | 17786 ft | 377 kts | 42° |
| 2026-04-24 09:00 | -5.68638 | 107.55647 | 17793 ft | 377 kts | 42° |
| 2026-04-24 09:01 | -5.66692 | 107.57429 | 17793 ft | 374 kts | 42° |
| 2026-04-24 09:01 | -5.64132 | 107.59773 | 17793 ft | 373 kts | 42° |
| 2026-04-24 09:01 | -5.62870 | 107.60929 | 17793 ft | 373 kts | 42° |
| 2026-04-24 09:01 | -5.60933 | 107.62702 | 17826 ft | 378 kts | 42° |
| 2026-04-24 09:02 | -5.58963 | 107.64505 | 18387 ft | 382 kts | 42° |
| 2026-04-24 09:02 | -5.57020 | 107.66283 | 19101 ft | 382 kts | 42° |
| 2026-04-24 09:02 | -5.55027 | 107.68105 | 19664 ft | 387 kts | 42° |
| 2026-04-24 09:02 | -5.53031 | 107.69929 | 20190 ft | 391 kts | 42° |
| 2026-04-24 09:03 | -5.51004 | 107.71781 | 20689 ft | 396 kts | 42° |
| 2026-04-24 09:03 | -5.48954 | 107.73655 | 21237 ft | 399 kts | 42° |
| 2026-04-24 09:03 | -5.46906 | 107.75526 | 21688 ft | 405 kts | 42° |
| 2026-04-24 09:03 | -5.44170 | 107.78155 | 21799 ft | 409 kts | 46° |
| 2026-04-24 09:04 | -5.42911 | 107.79574 | 21810 ft | 407 kts | 49° |
| 2026-04-24 09:04 | -5.41124 | 107.81840 | 22118 ft | 415 kts | 52° |
| 2026-04-24 09:04 | -5.38883 | 107.84940 | 22990 ft | 415 kts | 54° |
| 2026-04-24 09:04 | -5.37212 | 107.87332 | 23516 ft | 417 kts | 55° |
| 2026-04-24 09:05 | -5.36120 | 107.88911 | 23855 ft | 419 kts | 55° |
| 2026-04-24 09:05 | -5.34450 | 107.91326 | 24284 ft | 424 kts | 55° |
| 2026-04-24 09:05 | -5.32188 | 107.94590 | 24909 ft | 428 kts | 55° |
| 2026-04-24 09:05 | -5.31057 | 107.96217 | 25215 ft | 431 kts | 55° |
| 2026-04-24 09:06 | -5.29330 | 107.98695 | 25694 ft | 433 kts | 56° |
| 2026-04-24 09:06 | -5.27019 | 108.02003 | 26313 ft | 436 kts | 56° |
| 2026-04-24 09:06 | -5.25854 | 108.03668 | 26590 ft | 439 kts | 56° |
| 2026-04-24 09:06 | -5.23520 | 108.07000 | 27183 ft | 442 kts | 56° |
| 2026-04-24 09:07 | -5.22317 | 108.08717 | 27459 ft | 444 kts | 56° |
| 2026-04-24 09:07 | -5.20545 | 108.11243 | 27891 ft | 447 kts | 56° |
| 2026-04-24 09:07 | -5.16347 | 108.17225 | 28843 ft | 453 kts | 56° |
| 2026-04-24 09:08 | -5.15139 | 108.18945 | 29118 ft | 454 kts | 56° |
| 2026-04-24 09:08 | -5.13309 | 108.21553 | 29497 ft | 457 kts | 56° |
| 2026-04-24 09:08 | -5.11493 | 108.24139 | 29935 ft | 459 kts | 56° |
| 2026-04-24 09:08 | -5.09658 | 108.26752 | 30574 ft | 455 kts | 56° |
| 2026-04-24 09:09 | -5.07840 | 108.29340 | 31137 ft | 453 kts | 56° |
| 2026-04-24 09:09 | -5.06024 | 108.31924 | 31656 ft | 452 kts | 56° |
| 2026-04-24 09:09 | -5.04226 | 108.34483 | 32157 ft | 450 kts | 56° |
| 2026-04-24 09:09 | -5.01844 | 108.37873 | 32847 ft | 448 kts | 56° |
| 2026-04-24 09:10 | -5.00044 | 108.40437 | 33485 ft | 444 kts | 56° |
| 2026-04-24 09:10 | -4.98284 | 108.42942 | 34129 ft | 440 kts | 55° |
| 2026-04-24 09:10 | -4.96531 | 108.45438 | 34699 ft | 437 kts | 55° |
| 2026-04-24 09:10 | -4.94786 | 108.47922 | 35177 ft | 435 kts | 55° |
| 2026-04-24 09:11 | -4.93034 | 108.50418 | 35639 ft | 434 kts | 55° |
| 2026-04-24 09:11 | -4.91283 | 108.52911 | 36040 ft | 433 kts | 55° |
| 2026-04-24 09:11 | -4.90119 | 108.54570 | 36351 ft | 431 kts | 55° |
| 2026-04-24 09:11 | -4.88389 | 108.57031 | 36769 ft | 430 kts | 55° |
| 2026-04-24 09:12 | -4.84919 | 108.61970 | 36802 ft | 431 kts | 55° |
| 2026-04-24 09:12 | -4.80900 | 108.67687 | 36800 ft | 429 kts | 54° |
| 2026-04-24 09:13 | -4.78039 | 108.71757 | 36801 ft | 428 kts | 54° |
| 2026-04-24 09:13 | -4.74597 | 108.76652 | 36802 ft | 428 kts | 54° |
| 2026-04-24 09:14 | -4.71267 | 108.81603 | 36800 ft | 429 kts | 59° |
| 2026-04-24 09:14 | -4.68500 | 108.86877 | 36801 ft | 429 kts | 64° |
| 2026-04-24 09:15 | -4.65942 | 108.92311 | 36800 ft | 429 kts | 64° |
| 2026-04-24 09:15 | -4.63007 | 108.98621 | 36800 ft | 427 kts | 64° |
| 2026-04-24 09:16 | -4.60905 | 109.03100 | 36802 ft | 427 kts | 64° |
| 2026-04-24 09:16 | -4.58348 | 109.08510 | 36801 ft | 428 kts | 64° |
| 2026-04-24 09:17 | -4.55805 | 109.13868 | 36801 ft | 426 kts | 64° |
| 2026-04-24 09:17 | -4.53247 | 109.19247 | 36801 ft | 427 kts | 64° |
| 2026-04-24 09:18 | -4.50696 | 109.24604 | 36802 ft | 426 kts | 64° |
| 2026-04-24 09:18 | -4.47703 | 109.30888 | 36793 ft | 426 kts | 64° |
| 2026-04-24 09:19 | -4.45140 | 109.36269 | 36788 ft | 425 kts | 64° |
| 2026-04-24 09:19 | -4.43030 | 109.40698 | 36783 ft | 426 kts | 64° |
| 2026-04-24 09:20 | -4.40057 | 109.46935 | 36780 ft | 424 kts | 64° |
| 2026-04-24 09:20 | -4.37924 | 109.51408 | 36780 ft | 425 kts | 64° |
| 2026-04-24 09:21 | -4.35390 | 109.56722 | 36781 ft | 426 kts | 64° |
| 2026-04-24 09:21 | -4.32827 | 109.62096 | 36784 ft | 425 kts | 65° |
| 2026-04-24 09:22 | -4.30274 | 109.67448 | 36789 ft | 426 kts | 64° |
| 2026-04-24 09:22 | -4.27318 | 109.73645 | 36787 ft | 425 kts | 64° |
| 2026-04-24 09:23 | -4.25180 | 109.78125 | 36786 ft | 424 kts | 64° |
| 2026-04-24 09:23 | -4.22211 | 109.84345 | 36788 ft | 424 kts | 64° |
| 2026-04-24 09:24 | -4.19675 | 109.89658 | 36784 ft | 423 kts | 64° |
| 2026-04-24 09:24 | -4.17136 | 109.94974 | 36785 ft | 424 kts | 65° |
| 2026-04-24 09:25 | -4.15005 | 109.99438 | 36786 ft | 424 kts | 65° |
| 2026-04-24 09:25 | -4.12452 | 110.04783 | 36797 ft | 424 kts | 64° |
| 2026-04-24 09:26 | -4.09477 | 110.11010 | 36803 ft | 424 kts | 64° |
| 2026-04-24 09:26 | -4.07364 | 110.15431 | 36803 ft | 423 kts | 64° |
| 2026-04-24 09:27 | -4.04823 | 110.20747 | 36803 ft | 421 kts | 64° |
| 2026-04-24 09:27 | -4.01858 | 110.26947 | 36802 ft | 423 kts | 64° |
| 2026-04-24 09:28 | -3.99730 | 110.31396 | 36802 ft | 424 kts | 64° |
| 2026-04-24 09:28 | -3.96768 | 110.37588 | 36802 ft | 425 kts | 64° |
| 2026-04-24 09:29 | -3.94637 | 110.42043 | 36800 ft | 425 kts | 64° |
| 2026-04-24 09:29 | -3.92078 | 110.47392 | 36802 ft | 423 kts | 64° |
| 2026-04-24 09:30 | -3.89116 | 110.53579 | 36803 ft | 425 kts | 64° |
| 2026-04-24 09:30 | -3.86564 | 110.58909 | 36797 ft | 424 kts | 64° |
| 2026-04-24 09:31 | -3.84433 | 110.63358 | 36800 ft | 424 kts | 64° |
| 2026-04-24 09:31 | -3.81883 | 110.68677 | 36795 ft | 425 kts | 64° |
| 2026-04-24 09:32 | -3.78910 | 110.74881 | 36796 ft | 424 kts | 64° |
| 2026-04-24 09:32 | -3.76355 | 110.80214 | 36785 ft | 424 kts | 64° |
| 2026-04-24 09:33 | -3.74227 | 110.84654 | 36782 ft | 425 kts | 64° |
| 2026-04-24 09:33 | -3.71668 | 110.89992 | 36781 ft | 425 kts | 64° |
| 2026-04-24 09:34 | -3.69096 | 110.95359 | 36782 ft | 427 kts | 64° |
| 2026-04-24 09:34 | -3.66556 | 111.00659 | 36782 ft | 425 kts | 64° |
| 2026-04-24 09:35 | -3.63995 | 111.06004 | 36779 ft | 425 kts | 64° |
| 2026-04-24 09:35 | -3.60997 | 111.12254 | 36780 ft | 428 kts | 65° |
| 2026-04-24 09:36 | -3.58844 | 111.16743 | 36780 ft | 427 kts | 65° |
| 2026-04-24 09:36 | -3.56295 | 111.22055 | 36781 ft | 425 kts | 65° |
| 2026-04-24 09:37 | -3.53301 | 111.28295 | 36780 ft | 427 kts | 65° |
| 2026-04-24 09:37 | -3.51171 | 111.32732 | 36782 ft | 427 kts | 65° |
| 2026-04-24 09:38 | -3.48166 | 111.38993 | 36781 ft | 426 kts | 65° |
| 2026-04-24 09:38 | -3.46030 | 111.43441 | 36787 ft | 427 kts | 65° |
| 2026-04-24 09:39 | -3.43447 | 111.48819 | 36791 ft | 427 kts | 65° |
| 2026-04-24 09:39 | -3.40887 | 111.54149 | 36788 ft | 426 kts | 65° |
| 2026-04-24 09:40 | -3.38299 | 111.59536 | 36789 ft | 427 kts | 65° |
| 2026-04-24 09:40 | -3.35302 | 111.65775 | 36788 ft | 427 kts | 65° |
| 2026-04-24 09:41 | -3.33166 | 111.70219 | 36787 ft | 427 kts | 65° |
| 2026-04-24 09:41 | -3.30170 | 111.76453 | 36788 ft | 427 kts | 65° |
| 2026-04-24 09:42 | -3.28014 | 111.80939 | 36789 ft | 428 kts | 65° |
| 2026-04-24 09:42 | -3.25425 | 111.86323 | 36789 ft | 427 kts | 65° |
| 2026-04-24 09:43 | -3.22857 | 111.91664 | 36790 ft | 428 kts | 65° |
| 2026-04-24 09:43 | -3.20272 | 111.97038 | 36789 ft | 428 kts | 65° |
| 2026-04-24 09:44 | -3.17255 | 112.03308 | 36789 ft | 427 kts | 65° |
| 2026-04-24 09:44 | -3.15114 | 112.07759 | 36787 ft | 428 kts | 65° |
| 2026-04-24 09:45 | -3.12519 | 112.13151 | 36792 ft | 427 kts | 65° |
| 2026-04-24 09:45 | -3.09950 | 112.18488 | 36797 ft | 427 kts | 65° |
| 2026-04-24 09:46 | -3.06938 | 112.24747 | 36798 ft | 427 kts | 65° |
| 2026-04-24 09:46 | -3.04774 | 112.29242 | 36792 ft | 428 kts | 65° |
| 2026-04-24 09:47 | -3.02318 | 112.34661 | 36788 ft | 427 kts | 69° |
| 2026-04-24 09:47 | -3.00156 | 112.40201 | 36786 ft | 427 kts | 70° |
| 2026-04-24 09:48 | -2.98034 | 112.45763 | 36787 ft | 428 kts | 70° |
| 2026-04-24 09:48 | -2.95527 | 112.52236 | 36788 ft | 427 kts | 70° |
| 2026-04-24 09:49 | -2.93348 | 112.57796 | 36786 ft | 427 kts | 70° |
| 2026-04-24 09:49 | -2.91174 | 112.63311 | 36788 ft | 428 kts | 69° |
| 2026-04-24 09:50 | -2.89341 | 112.67950 | 36785 ft | 426 kts | 70° |
| 2026-04-24 09:50 | -2.87154 | 112.73485 | 36786 ft | 426 kts | 69° |
| 2026-04-24 09:51 | -2.84601 | 112.79942 | 36783 ft | 426 kts | 69° |
| 2026-04-24 09:51 | -2.82788 | 112.84525 | 36784 ft | 427 kts | 70° |
| 2026-04-24 09:52 | -2.80231 | 112.90988 | 36779 ft | 427 kts | 70° |
| 2026-04-24 09:52 | -2.78044 | 112.96516 | 36777 ft | 426 kts | 70° |
| 2026-04-24 09:53 | -2.76227 | 113.01105 | 36777 ft | 427 kts | 70° |
| 2026-04-24 09:53 | -2.73685 | 113.07530 | 36779 ft | 426 kts | 70° |
| 2026-04-24 09:54 | -2.71873 | 113.12106 | 36777 ft | 424 kts | 70° |
| 2026-04-24 09:54 | -2.69689 | 113.17623 | 36779 ft | 426 kts | 69° |
| 2026-04-24 09:55 | -2.67511 | 113.23122 | 36782 ft | 426 kts | 70° |
| 2026-04-24 09:55 | -2.64957 | 113.29572 | 36789 ft | 426 kts | 70° |
| 2026-04-24 09:56 | -2.63144 | 113.34148 | 36793 ft | 426 kts | 70° |
| 2026-04-24 09:56 | -2.60918 | 113.39601 | 36798 ft | 425 kts | 66° |
| 2026-04-24 09:57 | -2.58039 | 113.44776 | 36800 ft | 426 kts | 59° |
| 2026-04-24 09:57 | -2.54200 | 113.50568 | 36801 ft | 427 kts | 58° |
| 2026-04-24 09:58 | -2.51434 | 113.54663 | 36797 ft | 427 kts | 58° |
| 2026-04-24 09:58 | -2.48118 | 113.59621 | 36792 ft | 426 kts | 58° |
| 2026-04-24 09:59 | -2.44310 | 113.65372 | 36784 ft | 426 kts | 58° |
| 2026-04-24 09:59 | -2.41586 | 113.69506 | 36782 ft | 426 kts | 58° |
| 2026-04-24 10:00 | -2.38323 | 113.74466 | 36782 ft | 426 kts | 58° |
| 2026-04-24 10:00 | -2.35067 | 113.79418 | 36779 ft | 426 kts | 58° |
| 2026-04-24 10:01 | -2.31811 | 113.84370 | 36779 ft | 425 kts | 58° |
| 2026-04-24 10:01 | -2.28543 | 113.89341 | 36776 ft | 424 kts | 58° |
| 2026-04-24 10:02 | -2.25346 | 113.94290 | 36773 ft | 424 kts | 61° |
| 2026-04-24 10:02 | -2.22666 | 113.99556 | 36773 ft | 424 kts | 67° |
| 2026-04-24 10:03 | -2.20300 | 114.04967 | 36776 ft | 423 kts | 68° |
| 2026-04-24 10:03 | -2.17986 | 114.10374 | 36784 ft | 422 kts | 68° |
| 2026-04-24 10:04 | -2.15664 | 114.15753 | 36789 ft | 422 kts | 68° |
| 2026-04-24 10:04 | -2.12922 | 114.22048 | 36790 ft | 423 kts | 68° |
| 2026-04-24 10:05 | -2.10941 | 114.26575 | 36790 ft | 423 kts | 68° |
| 2026-04-24 10:05 | -2.08584 | 114.31944 | 36792 ft | 423 kts | 68° |
| 2026-04-24 10:06 | -2.04632 | 114.40940 | 36795 ft | 423 kts | 68° |
| 2026-04-24 10:07 | -2.02659 | 114.45433 | 36797 ft | 423 kts | 68° |
| 2026-04-24 10:07 | -2.00289 | 114.50826 | 36803 ft | 423 kts | 68° |
| 2026-04-24 10:08 | -1.97918 | 114.56221 | 36810 ft | 424 kts | 68° |
| 2026-04-24 10:08 | -1.95544 | 114.61624 | 36811 ft | 424 kts | 68° |
| 2026-04-24 10:09 | -1.93164 | 114.67040 | 36809 ft | 425 kts | 68° |
| 2026-04-24 10:09 | -1.90780 | 114.72463 | 36807 ft | 424 kts | 68° |
| 2026-04-24 10:10 | -1.88005 | 114.78773 | 36807 ft | 423 kts | 68° |
| 2026-04-24 10:10 | -1.86012 | 114.83307 | 36805 ft | 425 kts | 68° |
| 2026-04-24 10:11 | -1.83627 | 114.88731 | 36805 ft | 425 kts | 68° |
| 2026-04-24 10:11 | -1.81241 | 114.94160 | 36807 ft | 426 kts | 68° |
| 2026-04-24 10:12 | -1.78837 | 114.99625 | 36810 ft | 426 kts | 68° |
| 2026-04-24 10:12 | -1.76453 | 115.05045 | 36813 ft | 425 kts | 68° |
| 2026-04-24 10:13 | -1.74079 | 115.10442 | 36814 ft | 424 kts | 68° |
| 2026-04-24 10:13 | -1.71695 | 115.15859 | 36813 ft | 425 kts | 68° |
| 2026-04-24 10:14 | -1.69313 | 115.21275 | 36814 ft | 425 kts | 68° |
| 2026-04-24 10:14 | -1.66978 | 115.26708 | 36819 ft | 425 kts | 69° |
| 2026-04-24 10:15 | -1.64736 | 115.32188 | 36820 ft | 425 kts | 69° |
| 2026-04-24 10:15 | -1.62504 | 115.37686 | 36827 ft | 424 kts | 69° |
| 2026-04-24 10:16 | -1.60289 | 115.43124 | 36833 ft | 423 kts | 69° |
| 2026-04-24 10:16 | -1.57686 | 115.49483 | 36840 ft | 425 kts | 69° |
| 2026-04-24 10:17 | -1.55815 | 115.54046 | 36846 ft | 424 kts | 69° |
| 2026-04-24 10:17 | -1.53208 | 115.60397 | 36844 ft | 424 kts | 69° |
| 2026-04-24 10:18 | -1.51343 | 115.64936 | 36841 ft | 424 kts | 69° |
| 2026-04-24 10:18 | -1.49091 | 115.70418 | 36838 ft | 424 kts | 69° |
| 2026-04-24 10:19 | -1.46862 | 115.75845 | 36841 ft | 423 kts | 69° |
| 2026-04-24 10:19 | -1.44239 | 115.82231 | 36853 ft | 424 kts | 69° |
| 2026-04-24 10:20 | -1.42383 | 115.86749 | 36866 ft | 424 kts | 69° |
| 2026-04-24 10:20 | -1.40133 | 115.92225 | 36865 ft | 424 kts | 69° |
| 2026-04-24 10:21 | -1.37888 | 115.97688 | 36861 ft | 424 kts | 69° |
| 2026-04-24 10:21 | -1.35658 | 116.03114 | 36860 ft | 423 kts | 69° |
| 2026-04-24 10:22 | -1.33410 | 116.08582 | 36855 ft | 423 kts | 69° |
| 2026-04-24 10:22 | -1.31184 | 116.13998 | 36847 ft | 423 kts | 69° |
| 2026-04-24 10:23 | -1.28928 | 116.19487 | 36842 ft | 425 kts | 69° |
| 2026-04-24 10:23 | -1.26699 | 116.24908 | 36847 ft | 424 kts | 69° |
| 2026-04-24 10:24 | -1.24440 | 116.30403 | 36845 ft | 425 kts | 69° |
| 2026-04-24 10:24 | -1.22200 | 116.35851 | 36846 ft | 424 kts | 69° |
| 2026-04-24 10:25 | -1.19583 | 116.42215 | 36846 ft | 423 kts | 69° |
| 2026-04-24 10:25 | -1.17708 | 116.46776 | 36844 ft | 424 kts | 69° |
| 2026-04-24 10:26 | -1.15473 | 116.52213 | 36841 ft | 424 kts | 69° |
| 2026-04-24 10:26 | -1.12842 | 116.58610 | 36837 ft | 425 kts | 69° |
| 2026-04-24 10:27 | -1.10969 | 116.63164 | 36833 ft | 424 kts | 69° |
| 2026-04-24 10:27 | -1.08736 | 116.68593 | 36829 ft | 424 kts | 69° |
| 2026-04-24 10:28 | -1.06482 | 116.74072 | 36822 ft | 422 kts | 69° |
| 2026-04-24 10:28 | -1.04253 | 116.79491 | 36820 ft | 423 kts | 69° |
| 2026-04-24 10:29 | -1.02008 | 116.84949 | 36819 ft | 421 kts | 69° |
| 2026-04-24 10:29 | -0.99791 | 116.90338 | 36821 ft | 423 kts | 69° |
| 2026-04-24 10:30 | -0.97550 | 116.95785 | 36819 ft | 424 kts | 69° |
| 2026-04-24 10:30 | -0.95309 | 117.01233 | 36812 ft | 421 kts | 69° |
| 2026-04-24 10:31 | -0.93080 | 117.06661 | 36804 ft | 421 kts | 69° |
| 2026-04-24 10:31 | -0.90488 | 117.12971 | 36803 ft | 421 kts | 69° |
| 2026-04-24 10:32 | -0.88628 | 117.17500 | 36804 ft | 422 kts | 69° |
| 2026-04-24 10:32 | -0.86393 | 117.22940 | 36801 ft | 421 kts | 69° |
| 2026-04-24 10:33 | -0.84157 | 117.28383 | 36803 ft | 422 kts | 69° |
| 2026-04-24 10:33 | -0.81547 | 117.34734 | 36808 ft | 421 kts | 69° |
| 2026-04-24 10:34 | -0.79694 | 117.39246 | 36808 ft | 421 kts | 69° |
| 2026-04-24 10:34 | -0.77470 | 117.44657 | 36809 ft | 421 kts | 69° |
| 2026-04-24 10:35 | -0.75249 | 117.50062 | 36814 ft | 420 kts | 69° |
| 2026-04-24 10:35 | -0.73025 | 117.55473 | 36814 ft | 421 kts | 69° |
| 2026-04-24 10:36 | -0.70810 | 117.60864 | 36816 ft | 420 kts | 69° |
| 2026-04-24 10:36 | -0.68582 | 117.66284 | 36818 ft | 420 kts | 69° |
| 2026-04-24 10:37 | -0.65985 | 117.72602 | 36823 ft | 420 kts | 69° |
| 2026-04-24 10:37 | -0.64147 | 117.77075 | 36824 ft | 420 kts | 69° |
| 2026-04-24 10:38 | -0.61926 | 117.82478 | 36822 ft | 420 kts | 69° |
| 2026-04-24 10:38 | -0.59712 | 117.87864 | 36823 ft | 420 kts | 69° |
| 2026-04-24 10:39 | -0.57481 | 117.93291 | 36823 ft | 420 kts | 69° |
| 2026-04-24 10:39 | -0.54877 | 117.99626 | 36822 ft | 419 kts | 69° |
| 2026-04-24 10:40 | -0.53033 | 118.04113 | 36822 ft | 418 kts | 69° |
| 2026-04-24 10:40 | -0.50818 | 118.09502 | 36822 ft | 419 kts | 69° |
| 2026-04-24 10:41 | -0.48227 | 118.15804 | 36822 ft | 420 kts | 69° |
| 2026-04-24 10:41 | -0.46389 | 118.20274 | 36821 ft | 419 kts | 69° |
| 2026-04-24 10:42 | -0.44168 | 118.25675 | 36823 ft | 421 kts | 69° |
| 2026-04-24 10:42 | -0.41942 | 118.31090 | 36823 ft | 419 kts | 69° |
| 2026-04-24 10:43 | -0.39706 | 118.36528 | 36824 ft | 419 kts | 69° |
| 2026-04-24 10:43 | -0.37511 | 118.41866 | 36827 ft | 419 kts | 69° |
| 2026-04-24 10:44 | -0.35323 | 118.47308 | 36829 ft | 418 kts | 70° |
| 2026-04-24 10:44 | -0.32983 | 118.53673 | 36824 ft | 418 kts | 71° |
| 2026-04-24 10:45 | -0.31329 | 118.58244 | 36829 ft | 419 kts | 71° |
| 2026-04-24 10:45 | -0.29001 | 118.64636 | 36833 ft | 418 kts | 71° |
| 2026-04-24 10:46 | -0.27325 | 118.69211 | 36838 ft | 420 kts | 71° |
| 2026-04-24 10:46 | -0.25310 | 118.74691 | 36833 ft | 419 kts | 71° |
| 2026-04-24 10:47 | -0.23289 | 118.80179 | 36833 ft | 419 kts | 71° |
| 2026-04-24 10:47 | -0.20943 | 118.86547 | 36837 ft | 419 kts | 71° |
| 2026-04-24 10:48 | -0.19269 | 118.91091 | 36836 ft | 419 kts | 71° |
| 2026-04-24 10:48 | -0.17251 | 118.96563 | 36837 ft | 419 kts | 71° |
| 2026-04-24 10:49 | -0.15232 | 119.02042 | 36841 ft | 419 kts | 71° |
| 2026-04-24 10:49 | -0.13233 | 119.07468 | 36840 ft | 418 kts | 71° |
| 2026-04-24 10:50 | -0.11220 | 119.12928 | 36847 ft | 418 kts | 71° |
| 2026-04-24 10:50 | -0.09220 | 119.18353 | 36836 ft | 417 kts | 71° |
| 2026-04-24 10:51 | -0.07212 | 119.23801 | 36835 ft | 418 kts | 71° |
| 2026-04-24 10:51 | -0.05205 | 119.29250 | 36836 ft | 417 kts | 71° |
| 2026-04-24 10:52 | -0.03198 | 119.34697 | 36849 ft | 416 kts | 71° |
| 2026-04-24 10:52 | -0.01196 | 119.40128 | 36846 ft | 416 kts | 71° |
| 2026-04-24 10:53 | 0.01136 | 119.46458 | 36849 ft | 416 kts | 71° |
| 2026-04-24 10:53 | 0.02792 | 119.50954 | 36853 ft | 415 kts | 71° |
| 2026-04-24 10:54 | 0.04517 | 119.56456 | 36859 ft | 415 kts | 76° |
| 2026-04-24 10:54 | 0.05988 | 119.62045 | 36853 ft | 415 kts | 76° |
| 2026-04-24 10:55 | 0.07442 | 119.67609 | 36853 ft | 415 kts | 76° |
| 2026-04-24 10:55 | 0.08932 | 119.73186 | 36859 ft | 414 kts | 76° |
| 2026-04-24 10:56 | 0.10437 | 119.78731 | 36863 ft | 413 kts | 76° |
| 2026-04-24 10:56 | 0.11949 | 119.84264 | 36868 ft | 415 kts | 76° |
| 2026-04-24 10:57 | 0.13473 | 119.89827 | 36875 ft | 413 kts | 76° |
| 2026-04-24 10:57 | 0.14998 | 119.95384 | 36884 ft | 414 kts | 76° |
| 2026-04-24 10:58 | 0.16782 | 120.01881 | 36893 ft | 414 kts | 76° |
| 2026-04-24 10:58 | 0.18052 | 120.06509 | 36887 ft | 412 kts | 76° |
| 2026-04-24 10:59 | 0.19561 | 120.12008 | 36883 ft | 413 kts | 76° |
| 2026-04-24 10:59 | 0.21079 | 120.17538 | 36875 ft | 412 kts | 76° |
| 2026-04-24 11:00 | 0.22594 | 120.23057 | 36870 ft | 413 kts | 76° |
| 2026-04-24 11:00 | 0.24123 | 120.28630 | 36870 ft | 413 kts | 76° |
| 2026-04-24 11:01 | 0.25899 | 120.35101 | 36876 ft | 413 kts | 76° |
| 2026-04-24 11:01 | 0.27163 | 120.39708 | 36876 ft | 414 kts | 76° |
| 2026-04-24 11:02 | 0.28677 | 120.45225 | 36872 ft | 413 kts | 76° |
| 2026-04-24 11:02 | 0.30205 | 120.50790 | 36871 ft | 413 kts | 76° |
| 2026-04-24 11:03 | 0.31724 | 120.56329 | 36869 ft | 413 kts | 76° |
| 2026-04-24 11:03 | 0.33237 | 120.61847 | 36871 ft | 413 kts | 76° |
| 2026-04-24 11:04 | 0.34768 | 120.67423 | 36877 ft | 414 kts | 76° |
| 2026-04-24 11:04 | 0.36287 | 120.72961 | 36878 ft | 413 kts | 76° |
| 2026-04-24 11:05 | 0.38072 | 120.79466 | 36887 ft | 413 kts | 76° |
| 2026-04-24 11:05 | 0.39332 | 120.84055 | 36893 ft | 413 kts | 76° |
| 2026-04-24 11:06 | 0.40855 | 120.89606 | 36901 ft | 413 kts | 76° |
| 2026-04-24 11:06 | 0.42379 | 120.95164 | 36905 ft | 413 kts | 76° |
| 2026-04-24 11:07 | 0.44664 | 121.03489 | 36916 ft | 413 kts | 76° |
| 2026-04-24 11:07 | 0.46183 | 121.09031 | 36915 ft | 413 kts | 76° |
| 2026-04-24 11:08 | 0.47702 | 121.14568 | 36911 ft | 412 kts | 76° |
| 2026-04-24 11:08 | 0.49219 | 121.20096 | 36908 ft | 413 kts | 76° |
| 2026-04-24 11:09 | 0.50731 | 121.25611 | 36913 ft | 412 kts | 76° |
| 2026-04-24 11:09 | 0.52512 | 121.32102 | 36920 ft | 414 kts | 76° |
| 2026-04-24 11:10 | 0.53776 | 121.36706 | 36915 ft | 412 kts | 76° |
| 2026-04-24 11:10 | 0.55293 | 121.42230 | 36920 ft | 413 kts | 76° |
| 2026-04-24 11:11 | 0.56808 | 121.47755 | 36921 ft | 412 kts | 76° |
| 2026-04-24 11:11 | 0.58571 | 121.54183 | 36924 ft | 413 kts | 76° |
| 2026-04-24 11:12 | 0.59839 | 121.58810 | 36940 ft | 413 kts | 76° |
| 2026-04-24 11:12 | 0.61357 | 121.64340 | 36943 ft | 413 kts | 76° |
| 2026-04-24 11:13 | 0.62886 | 121.69909 | 36939 ft | 413 kts | 76° |
| 2026-04-24 11:13 | 0.64403 | 121.75440 | 36943 ft | 414 kts | 76° |
| 2026-04-24 11:14 | 0.65919 | 121.80972 | 36961 ft | 412 kts | 76° |
| 2026-04-24 11:14 | 0.67684 | 121.87408 | 36976 ft | 411 kts | 76° |
| 2026-04-24 11:15 | 0.68946 | 121.92011 | 36999 ft | 413 kts | 76° |
| 2026-04-24 11:15 | 0.70464 | 121.97548 | 37018 ft | 412 kts | 76° |
| 2026-04-24 11:16 | 0.71986 | 122.03096 | 37035 ft | 412 kts | 76° |
| 2026-04-24 11:16 | 0.73497 | 122.08608 | 37026 ft | 412 kts | 76° |
| 2026-04-24 11:17 | 0.75015 | 122.14147 | 37017 ft | 413 kts | 76° |
| 2026-04-24 11:17 | 0.76531 | 122.19682 | 36998 ft | 413 kts | 76° |
| 2026-04-24 11:18 | 0.78047 | 122.25209 | 36976 ft | 413 kts | 76° |
| 2026-04-24 11:18 | 0.79558 | 122.30719 | 36969 ft | 414 kts | 76° |
| 2026-04-24 11:19 | 0.81084 | 122.36289 | 36957 ft | 413 kts | 76° |
| 2026-04-24 11:19 | 0.82594 | 122.41798 | 36941 ft | 412 kts | 76° |
| 2026-04-24 11:20 | 0.84107 | 122.47321 | 36934 ft | 413 kts | 76° |
| 2026-04-24 11:20 | 0.85626 | 122.52865 | 36934 ft | 414 kts | 76° |
| 2026-04-24 11:21 | 0.87138 | 122.58375 | 36924 ft | 413 kts | 76° |
| 2026-04-24 11:21 | 0.88665 | 122.63947 | 36918 ft | 415 kts | 76° |
| 2026-04-24 11:22 | 0.90186 | 122.69480 | 36905 ft | 414 kts | 76° |
| 2026-04-24 11:22 | 0.91961 | 122.75951 | 36896 ft | 413 kts | 76° |
| 2026-04-24 11:23 | 0.93221 | 122.80547 | 36901 ft | 415 kts | 75° |
| 2026-04-24 11:23 | 0.94745 | 122.86100 | 36899 ft | 413 kts | 75° |
| 2026-04-24 11:24 | 0.96264 | 122.91635 | 36902 ft | 414 kts | 75° |
| 2026-04-24 11:24 | 0.97779 | 122.97160 | 36891 ft | 414 kts | 75° |
| 2026-04-24 11:25 | 0.99292 | 123.02673 | 36889 ft | 414 kts | 75° |
| 2026-04-24 11:25 | 1.00814 | 123.08224 | 36883 ft | 412 kts | 76° |
| 2026-04-24 11:26 | 1.02329 | 123.13747 | 36872 ft | 412 kts | 75° |
| 2026-04-24 11:26 | 1.03065 | 123.16428 | 36372 ft | 402 kts | 75° |
| 2026-04-24 11:26 | 1.03804 | 123.19115 | 35528 ft | 395 kts | 75° |
| 2026-04-24 11:27 | 1.04516 | 123.21709 | 34958 ft | 385 kts | 75° |
| 2026-04-24 11:27 | 1.05265 | 123.24237 | 34383 ft | 375 kts | 73° |
| 2026-04-24 11:27 | 1.06191 | 123.26619 | 33694 ft | 370 kts | 65° |
| 2026-04-24 11:27 | 1.07467 | 123.28809 | 33152 ft | 362 kts | 58° |
| 2026-04-24 11:28 | 1.09447 | 123.31502 | 32584 ft | 357 kts | 54° |
| 2026-04-24 11:28 | 1.10465 | 123.32788 | 32226 ft | 357 kts | 54° |
| 2026-04-24 11:28 | 1.12020 | 123.34720 | 31648 ft | 358 kts | 53° |
| 2026-04-24 11:28 | 1.13573 | 123.36646 | 31197 ft | 355 kts | 53° |
| 2026-04-24 11:29 | 1.15111 | 123.38561 | 30768 ft | 352 kts | 53° |
| 2026-04-24 11:29 | 1.16643 | 123.40484 | 30328 ft | 350 kts | 53° |
| 2026-04-24 11:29 | 1.18152 | 123.42388 | 29907 ft | 346 kts | 53° |
| 2026-04-24 11:29 | 1.19619 | 123.44247 | 29496 ft | 344 kts | 53° |
| 2026-04-24 11:30 | 1.21087 | 123.46112 | 29074 ft | 341 kts | 53° |
| 2026-04-24 11:30 | 1.22549 | 123.47972 | 28651 ft | 339 kts | 53° |
| 2026-04-24 11:30 | 1.24494 | 123.50449 | 28091 ft | 336 kts | 53° |
| 2026-04-24 11:30 | 1.25445 | 123.51659 | 27825 ft | 334 kts | 53° |
| 2026-04-24 11:31 | 1.26863 | 123.53465 | 27417 ft | 332 kts | 53° |
| 2026-04-24 11:31 | 1.28295 | 123.55290 | 27006 ft | 330 kts | 53° |
| 2026-04-24 11:31 | 1.29696 | 123.57074 | 26603 ft | 327 kts | 53° |
| 2026-04-24 11:31 | 1.31099 | 123.58861 | 26222 ft | 324 kts | 53° |
| 2026-04-24 11:32 | 1.32877 | 123.61241 | 25694 ft | 320 kts | 59° |
| 2026-04-24 11:32 | 1.33598 | 123.62544 | 25425 ft | 318 kts | 66° |
| 2026-04-24 11:32 | 1.34316 | 123.64607 | 25034 ft | 315 kts | 77° |
| 2026-04-24 11:32 | 1.34680 | 123.66747 | 24645 ft | 313 kts | 84° |
| 2026-04-24 11:33 | 1.34724 | 123.68904 | 24235 ft | 312 kts | 94° |
| 2026-04-24 11:33 | 1.34337 | 123.71043 | 23869 ft | 310 kts | 104° |
| 2026-04-24 11:33 | 1.33663 | 123.73078 | 23472 ft | 310 kts | 108° |
| 2026-04-24 11:33 | 1.32626 | 123.75726 | 22973 ft | 307 kts | 110° |
| 2026-04-24 11:34 | 1.32093 | 123.77045 | 22721 ft | 306 kts | 110° |
| 2026-04-24 11:34 | 1.31299 | 123.79012 | 22329 ft | 304 kts | 110° |
| 2026-04-24 11:34 | 1.30515 | 123.80971 | 21962 ft | 302 kts | 109° |
| 2026-04-24 11:34 | 1.29496 | 123.83541 | 21899 ft | 296 kts | 109° |
| 2026-04-24 11:35 | 1.28997 | 123.84808 | 21896 ft | 301 kts | 109° |
| 2026-04-24 11:35 | 1.27974 | 123.87417 | 21569 ft | 304 kts | 110° |
| 2026-04-24 11:35 | 1.27453 | 123.88744 | 21324 ft | 303 kts | 110° |
| 2026-04-24 11:35 | 1.26439 | 123.91328 | 20810 ft | 302 kts | 110° |
| 2026-04-24 11:36 | 1.25930 | 123.92625 | 20558 ft | 301 kts | 110° |
| 2026-04-24 11:36 | 1.25162 | 123.94584 | 20174 ft | 300 kts | 110° |
| 2026-04-24 11:36 | 1.24412 | 123.96496 | 19803 ft | 299 kts | 110° |
| 2026-04-24 11:36 | 1.23405 | 123.99062 | 19298 ft | 297 kts | 110° |
| 2026-04-24 11:37 | 1.22900 | 124.00351 | 19049 ft | 296 kts | 110° |
| 2026-04-24 11:37 | 1.22147 | 124.02269 | 18670 ft | 295 kts | 110° |
| 2026-04-24 11:37 | 1.21406 | 124.04162 | 18287 ft | 294 kts | 110° |
| 2026-04-24 11:37 | 1.20668 | 124.06049 | 17914 ft | 285 kts | 110° |
| 2026-04-24 11:38 | 1.19958 | 124.07861 | 17564 ft | 276 kts | 110° |
| 2026-04-24 11:38 | 1.19274 | 124.09603 | 17209 ft | 269 kts | 110° |
| 2026-04-24 11:38 | 1.18592 | 124.11343 | 16866 ft | 262 kts | 110° |
| 2026-04-24 11:38 | 1.17942 | 124.13002 | 16547 ft | 257 kts | 110° |
| 2026-04-24 11:39 | 1.17288 | 124.14671 | 16230 ft | 260 kts | 110° |
| 2026-04-24 11:39 | 1.16625 | 124.16361 | 15877 ft | 260 kts | 110° |
| 2026-04-24 11:39 | 1.15975 | 124.18019 | 15559 ft | 258 kts | 110° |
| 2026-04-24 11:39 | 1.15322 | 124.19693 | 15234 ft | 257 kts | 109° |
| 2026-04-24 11:40 | 1.14864 | 124.21304 | 14936 ft | 254 kts | 97° |
| 2026-04-24 11:40 | 1.14898 | 124.23025 | 14888 ft | 247 kts | 79° |
| 2026-04-24 11:40 | 1.15427 | 124.25291 | 14881 ft | 251 kts | 76° |
| 2026-04-24 11:40 | 1.15713 | 124.26427 | 14882 ft | 250 kts | 76° |
| 2026-04-24 11:41 | 1.16122 | 124.28100 | 14827 ft | 251 kts | 77° |
| 2026-04-24 11:41 | 1.16529 | 124.29814 | 14600 ft | 253 kts | 77° |
| 2026-04-24 11:41 | 1.16927 | 124.31509 | 14273 ft | 253 kts | 77° |
| 2026-04-24 11:41 | 1.17331 | 124.33237 | 13936 ft | 253 kts | 77° |
| 2026-04-24 11:42 | 1.17726 | 124.34920 | 13622 ft | 251 kts | 77° |
| 2026-04-24 11:42 | 1.18125 | 124.36620 | 13297 ft | 251 kts | 77° |
| 2026-04-24 11:42 | 1.18524 | 124.38316 | 12977 ft | 249 kts | 77° |
| 2026-04-24 11:42 | 1.18920 | 124.39999 | 12658 ft | 248 kts | 77° |
| 2026-04-24 11:43 | 1.19315 | 124.41675 | 12351 ft | 247 kts | 76° |
| 2026-04-24 11:43 | 1.19708 | 124.43345 | 12028 ft | 246 kts | 76° |
| 2026-04-24 11:43 | 1.20096 | 124.44997 | 11726 ft | 245 kts | 76° |
| 2026-04-24 11:43 | 1.20486 | 124.46658 | 11409 ft | 244 kts | 77° |
| 2026-04-24 11:44 | 1.20866 | 124.48277 | 11099 ft | 243 kts | 76° |
| 2026-04-24 11:44 | 1.21250 | 124.49917 | 10775 ft | 243 kts | 76° |
| 2026-04-24 11:44 | 1.21767 | 124.52116 | 10373 ft | 241 kts | 76° |
| 2026-04-24 11:44 | 1.22019 | 124.53188 | 10162 ft | 241 kts | 76° |
| 2026-04-24 11:45 | 1.22404 | 124.54822 | 9923 ft | 236 kts | 76° |
| 2026-04-24 11:45 | 1.22760 | 124.56377 | 9913 ft | 229 kts | 77° |
| 2026-04-24 11:45 | 1.23089 | 124.57941 | 9869 ft | 227 kts | 78° |
| 2026-04-24 11:45 | 1.23399 | 124.59461 | 9822 ft | 227 kts | 78° |
| 2026-04-24 11:46 | 1.23724 | 124.61036 | 9573 ft | 231 kts | 78° |
| 2026-04-24 11:46 | 1.24051 | 124.62605 | 9292 ft | 230 kts | 77° |
| 2026-04-24 11:46 | 1.24379 | 124.64168 | 9015 ft | 229 kts | 77° |
| 2026-04-24 11:46 | 1.24700 | 124.65698 | 8737 ft | 229 kts | 77° |
| 2026-04-24 11:47 | 1.25028 | 124.67264 | 8455 ft | 228 kts | 77° |
| 2026-04-24 11:47 | 1.25350 | 124.68806 | 8278 ft | 224 kts | 77° |
| 2026-04-24 11:47 | 1.25665 | 124.70307 | 8209 ft | 219 kts | 77° |
| 2026-04-24 11:47 | 1.25977 | 124.71794 | 8149 ft | 223 kts | 77° |
| 2026-04-24 11:48 | 1.26298 | 124.73327 | 8070 ft | 221 kts | 77° |
| 2026-04-24 11:48 | 1.26601 | 124.74829 | 7979 ft | 223 kts | 79° |
| 2026-04-24 11:48 | 1.26733 | 124.76365 | 7726 ft | 225 kts | 86° |
| 2026-04-24 11:48 | 1.26742 | 124.77938 | 7414 ft | 225 kts | 88° |
| 2026-04-24 11:49 | 1.26740 | 124.79493 | 7152 ft | 223 kts | 87° |
| 2026-04-24 11:49 | 1.26754 | 124.81039 | 6879 ft | 222 kts | 87° |
| 2026-04-24 11:49 | 1.26777 | 124.82568 | 6614 ft | 220 kts | 86° |
| 2026-04-24 11:49 | 1.26803 | 124.84084 | 6346 ft | 219 kts | 86° |
| 2026-04-24 11:50 | 1.26830 | 124.85607 | 6082 ft | 218 kts | 86° |
| 2026-04-24 11:50 | 1.26855 | 124.87102 | 5824 ft | 213 kts | 86° |
| 2026-04-24 11:50 | 1.26879 | 124.88549 | 5582 ft | 199 kts | 85° |
| 2026-04-24 11:50 | 1.27018 | 124.89841 | 5373 ft | 178 kts | 71° |
| 2026-04-24 11:51 | 1.27934 | 124.91058 | 5169 ft | 158 kts | 37° |
| 2026-04-24 11:51 | 1.28531 | 124.91445 | 5134 ft | 146 kts | 31° |
| 2026-04-24 11:51 | 1.29808 | 124.91836 | 5119 ft | 148 kts | 6° |
| 2026-04-24 11:51 | 1.30501 | 124.91851 | 5124 ft | 148 kts | 4° |
| 2026-04-24 11:52 | 1.31537 | 124.91867 | 5015 ft | 148 kts | 5° |
| 2026-04-24 11:52 | 1.32577 | 124.91896 | 4771 ft | 145 kts | 5° |
| 2026-04-24 11:52 | 1.33587 | 124.91924 | 4563 ft | 144 kts | 5° |
| 2026-04-24 11:52 | 1.34585 | 124.91949 | 4356 ft | 141 kts | 5° |
| 2026-04-24 11:53 | 1.35576 | 124.92037 | 4160 ft | 142 kts | 9° |
| 2026-04-24 11:53 | 1.36559 | 124.92127 | 4142 ft | 142 kts | 6° |
| 2026-04-24 11:53 | 1.37562 | 124.92160 | 4124 ft | 143 kts | 5° |
| 2026-04-24 11:53 | 1.38579 | 124.92179 | 3811 ft | 147 kts | 5° |
| 2026-04-24 11:54 | 1.39591 | 124.92203 | 3424 ft | 144 kts | 5° |
| 2026-04-24 11:54 | 1.40577 | 124.92232 | 3124 ft | 138 kts | 5° |
| 2026-04-24 11:54 | 1.41547 | 124.92252 | 2883 ft | 136 kts | 5° |
| 2026-04-24 11:54 | 1.42505 | 124.92283 | 2684 ft | 139 kts | 5° |
| 2026-04-24 11:55 | 1.43455 | 124.92311 | 2469 ft | 137 kts | 4° |
| 2026-04-24 11:55 | 1.44438 | 124.92332 | 2272 ft | 139 kts | 4° |
| 2026-04-24 11:55 | 1.45406 | 124.92356 | 2063 ft | 139 kts | 5° |
| 2026-04-24 11:55 | 1.46381 | 124.92387 | 1857 ft | 138 kts | 5° |
| 2026-04-24 11:56 | 1.47351 | 124.92416 | 1654 ft | 140 kts | 4° |
| 2026-04-24 11:56 | 1.48338 | 124.92442 | 1445 ft | 141 kts | 4° |
| 2026-04-24 11:56 | 1.49317 | 124.92464 | 1243 ft | 141 kts | 4° |
| 2026-04-24 11:56 | 1.50311 | 124.92491 | 1029 ft | 141 kts | 3° |
| 2026-04-24 11:57 | 1.51297 | 124.92514 | 919 ft | 140 kts | 2° |
| 2026-04-24 11:57 | 1.52286 | 124.92503 | 715 ft | 140 kts | 4° |
| 2026-04-24 11:57 | 1.53252 | 124.92574 | 462 ft | 141 kts | 3° |
| 2026-04-24 11:57 | 1.54274 | 124.92606 | 319 ft | 146 kts | 2° |
| 2026-04-24 11:58 | 1.55176 | 124.92640 | 302 ft | 99 kts | 4° |
| 2026-04-24 11:58 | 1.55636 | 124.92657 | 304 ft | 34 kts | 355° |
| 2026-04-24 11:58 | 1.55760 | 124.92645 | 305 ft | 5 kts | 356° |
| 2026-04-24 11:58 | 1.55802 | 124.92643 | 305 ft | 5 kts | 1° |
| 2026-04-24 11:59 | 1.55835 | 124.92644 | 305 ft | 10 kts | 4° |
| 2026-04-24 11:59 | 1.55954 | 124.92658 | 305 ft | 22 kts | 8° |
| 2026-04-24 11:59 | 1.56074 | 124.92668 | 302 ft | 17 kts | 349° |
| 2026-04-24 11:59 | 1.56122 | 124.92567 | 300 ft | 17 kts | 267° |
| 2026-04-24 12:00 | 1.56047 | 124.92504 | 303 ft | 14 kts | 181° |
| 2026-04-24 12:00 | 1.55945 | 124.92502 | 305 ft | 17 kts | 181° |
| 2026-04-24 12:00 | 1.55801 | 124.92498 | 305 ft | 24 kts | 182° |
| 2026-04-24 12:00 | 1.55609 | 124.92492 | 304 ft | 31 kts | 181° |
| 2026-04-24 12:01 | 1.55365 | 124.92483 | 302 ft | 37 kts | 181° |
| 2026-04-24 12:01 | 1.55089 | 124.92474 | 299 ft | 40 kts | 183° |
| 2026-04-24 12:01 | 1.54810 | 124.92464 | 299 ft | 39 kts | 181° |
| 2026-04-24 12:01 | 1.54551 | 124.92458 | 302 ft | 28 kts | 181° |
| 2026-04-24 12:02 | 1.54445 | 124.92453 | 303 ft | 14 kts | 189° |
| 2026-04-24 12:02 | 1.54356 | 124.92423 | 304 ft | 12 kts | 189° |
| 2026-04-24 12:02 | 1.54304 | 124.92419 | 304 ft | 6 kts | 185° |
| 2026-04-24 12:02 | 1.54261 | 124.92414 | 304 ft | 6 kts | 179° |
| 2026-04-24 12:03 | 1.54236 | 124.92423 | 305 ft | 1 kts | 232° |
| 2026-04-24 12:03 | 1.54251 | 124.92415 | 304 ft | 3 kts | 343° |
| 2026-04-24 12:03 | 1.54275 | 124.92401 | 304 ft | 4 kts | 313° |
| 2026-04-24 12:03 | 1.54294 | 124.92375 | 304 ft | 5 kts | 304° |
| 2026-04-24 12:04 | 1.54300 | 124.92367 | 303 ft | 0 kts | 306° |